sensor_id;sensor_type;location;lat;lon;timestamp;temperature;humidity
4755;DHT22;2391;47.212;7.542;2023-02-26T00:00:07;5.80;80.50
4755;DHT22;2391;47.212;7.542;2023-02-26T00:02:35;5.70;80.80
4755;DHT22;2391;47.212;7.542;2023-02-26T00:05:02;5.50;81.40
4755;DHT22;2391;47.212;7.542;2023-02-26T00:07:29;5.20;81.50
4755;DHT22;2391;47.212;7.542;2023-02-26T00:09:54;5.00;82.00
4755;DHT22;2391;47.212;7.542;2023-02-26T00:12:20;5.00;83.10
4755;DHT22;2391;47.212;7.542;2023-02-26T00:14:47;5.10;83.40
4755;DHT22;2391;47.212;7.542;2023-02-26T00:19:54;5.30;83.60
4755;DHT22;2391;47.212;7.542;2023-02-26T00:22:20;5.30;84.00
4755;DHT22;2391;47.212;7.542;2023-02-26T00:24:46;5.40;84.30
4755;DHT22;2391;47.212;7.542;2023-02-26T00:27:12;5.50;84.60
4755;DHT22;2391;47.212;7.542;2023-02-26T00:29:39;5.50;84.60
4755;DHT22;2391;47.212;7.542;2023-02-26T00:32:05;5.50;84.70
4755;DHT22;2391;47.212;7.542;2023-02-26T00:34:32;5.60;84.80
4755;DHT22;2391;47.212;7.542;2023-02-26T00:37:22;5.60;85.20
4755;DHT22;2391;47.212;7.542;2023-02-26T00:39:50;5.50;85.40
4755;DHT22;2391;47.212;7.542;2023-02-26T00:42:16;5.50;85.80
4755;DHT22;2391;47.212;7.542;2023-02-26T00:44:43;5.40;86.50
4755;DHT22;2391;47.212;7.542;2023-02-26T00:47:29;5.20;86.80
4755;DHT22;2391;47.212;7.542;2023-02-26T00:55:35;5.00;87.80
4755;DHT22;2391;47.212;7.542;2023-02-26T00:58:01;5.10;87.30
4755;DHT22;2391;47.212;7.542;2023-02-26T01:00:26;5.10;87.20
4755;DHT22;2391;47.212;7.542;2023-02-26T01:02:53;5.10;86.90
4755;DHT22;2391;47.212;7.542;2023-02-26T01:05:19;5.10;86.60
4755;DHT22;2391;47.212;7.542;2023-02-26T01:10:27;5.00;85.80
4755;DHT22;2391;47.212;7.542;2023-02-26T01:12:53;4.90;85.60
4755;DHT22;2391;47.212;7.542;2023-02-26T01:15:22;4.70;86.00
4755;DHT22;2391;47.212;7.542;2023-02-26T01:17:53;4.50;85.90
4755;DHT22;2391;47.212;7.542;2023-02-26T01:20:21;4.30;86.00
4755;DHT22;2391;47.212;7.542;2023-02-26T01:25:24;4.10;86.50
4755;DHT22;2391;47.212;7.542;2023-02-26T01:27:51;4.10;87.10
4755;DHT22;2391;47.212;7.542;2023-02-26T01:30:17;4.10;86.90
4755;DHT22;2391;47.212;7.542;2023-02-26T01:32:54;4.10;86.80
4755;DHT22;2391;47.212;7.542;2023-02-26T01:35:41;4.10;86.70
4755;DHT22;2391;47.212;7.542;2023-02-26T01:49:27;4.00;87.00
4755;DHT22;2391;47.212;7.542;2023-02-26T01:51:57;4.10;87.20
4755;DHT22;2391;47.212;7.542;2023-02-26T01:54:33;4.10;86.70
4755;DHT22;2391;47.212;7.542;2023-02-26T01:57:08;4.20;86.40
4755;DHT22;2391;47.212;7.542;2023-02-26T01:59:37;4.30;85.90
4755;DHT22;2391;47.212;7.542;2023-02-26T02:02:06;4.20;85.10
4755;DHT22;2391;47.212;7.542;2023-02-26T02:04:33;4.10;85.20
4755;DHT22;2391;47.212;7.542;2023-02-26T02:06:59;4.00;84.90
4755;DHT22;2391;47.212;7.542;2023-02-26T02:09:25;3.90;85.10
4755;DHT22;2391;47.212;7.542;2023-02-26T02:33:48;3.20;84.30
4755;DHT22;2391;47.212;7.542;2023-02-26T02:39:28;3.10;84.10
4755;DHT22;2391;47.212;7.542;2023-02-26T02:42:02;3.10;84.10
4755;DHT22;2391;47.212;7.542;2023-02-26T02:44:29;3.00;83.80
4755;DHT22;2391;47.212;7.542;2023-02-26T02:46:57;3.00;83.40
4755;DHT22;2391;47.212;7.542;2023-02-26T02:49:40;2.90;83.80
4755;DHT22;2391;47.212;7.542;2023-02-26T02:57:23;3.10;83.70
4755;DHT22;2391;47.212;7.542;2023-02-26T02:59:58;3.00;83.20
4755;DHT22;2391;47.212;7.542;2023-02-26T03:02:45;3.00;83.30
4755;DHT22;2391;47.212;7.542;2023-02-26T03:05:09;3.00;83.10
4755;DHT22;2391;47.212;7.542;2023-02-26T03:07:39;3.10;82.40
4755;DHT22;2391;47.212;7.542;2023-02-26T03:10:05;3.20;82.90
4755;DHT22;2391;47.212;7.542;2023-02-26T03:12:32;3.20;82.10
4755;DHT22;2391;47.212;7.542;2023-02-26T03:14:58;3.20;81.30
4755;DHT22;2391;47.212;7.542;2023-02-26T03:17:42;3.20;80.90
4755;DHT22;2391;47.212;7.542;2023-02-26T03:20:17;3.20;81.00
4755;DHT22;2391;47.212;7.542;2023-02-26T03:31:36;3.20;80.20
4755;DHT22;2391;47.212;7.542;2023-02-26T03:36:00;3.10;79.10
4755;DHT22;2391;47.212;7.542;2023-02-26T03:38:51;3.20;79.40
4755;DHT22;2391;47.212;7.542;2023-02-26T03:41:13;3.20;79.20
4755;DHT22;2391;47.212;7.542;2023-02-26T03:43:51;3.30;78.80
4755;DHT22;2391;47.212;7.542;2023-02-26T03:46:18;3.50;78.20
4755;DHT22;2391;47.212;7.542;2023-02-26T03:48:47;3.60;77.70
4755;DHT22;2391;47.212;7.542;2023-02-26T03:51:14;3.60;77.30
4755;DHT22;2391;47.212;7.542;2023-02-26T03:53:55;3.70;77.50
4755;DHT22;2391;47.212;7.542;2023-02-26T03:56:34;3.80;76.50
4755;DHT22;2391;47.212;7.542;2023-02-26T03:59:00;3.80;74.70
4755;DHT22;2391;47.212;7.542;2023-02-26T04:01:32;3.60;75.20
4755;DHT22;2391;47.212;7.542;2023-02-26T04:04:10;3.50;75.60
4755;DHT22;2391;47.212;7.542;2023-02-26T04:06:36;3.40;75.20
4755;DHT22;2391;47.212;7.542;2023-02-26T04:09:03;3.30;75.10
4755;DHT22;2391;47.212;7.542;2023-02-26T04:11:30;3.30;74.50
4755;DHT22;2391;47.212;7.542;2023-02-26T04:13:57;3.30;75.10
4755;DHT22;2391;47.212;7.542;2023-02-26T04:16:22;3.40;75.40
4755;DHT22;2391;47.212;7.542;2023-02-26T04:18:48;3.60;76.00
4755;DHT22;2391;47.212;7.542;2023-02-26T04:21:19;3.70;75.20
4755;DHT22;2391;47.212;7.542;2023-02-26T04:23:43;3.80;74.50
4755;DHT22;2391;47.212;7.542;2023-02-26T04:26:08;3.70;72.90
4755;DHT22;2391;47.212;7.542;2023-02-26T04:28:34;3.60;73.30
4755;DHT22;2391;47.212;7.542;2023-02-26T04:31:07;3.40;73.20
4755;DHT22;2391;47.212;7.542;2023-02-26T04:33:31;3.30;73.40
4755;DHT22;2391;47.212;7.542;2023-02-26T04:35:59;3.20;73.40
4755;DHT22;2391;47.212;7.542;2023-02-26T04:38:25;3.10;73.10
4755;DHT22;2391;47.212;7.542;2023-02-26T04:40:51;3.00;73.00
4755;DHT22;2391;47.212;7.542;2023-02-26T04:43:17;3.00;73.30
4755;DHT22;2391;47.212;7.542;2023-02-26T04:45:46;2.90;72.90
4755;DHT22;2391;47.212;7.542;2023-02-26T04:48:14;2.90;73.20
4755;DHT22;2391;47.212;7.542;2023-02-26T04:50:40;2.90;72.40
4755;DHT22;2391;47.212;7.542;2023-02-26T04:53:06;2.70;72.10
4755;DHT22;2391;47.212;7.542;2023-02-26T04:55:33;2.60;72.50
4755;DHT22;2391;47.212;7.542;2023-02-26T04:57:59;2.50;72.30
4755;DHT22;2391;47.212;7.542;2023-02-26T05:00:25;2.40;72.30
4755;DHT22;2391;47.212;7.542;2023-02-26T05:02:51;2.40;72.60
4755;DHT22;2391;47.212;7.542;2023-02-26T05:05:17;2.50;72.80
4755;DHT22;2391;47.212;7.542;2023-02-26T05:07:43;2.50;71.80
4755;DHT22;2391;47.212;7.542;2023-02-26T05:10:10;2.60;71.30
4755;DHT22;2391;47.212;7.542;2023-02-26T05:12:36;2.50;71.40
4755;DHT22;2391;47.212;7.542;2023-02-26T05:15:02;2.50;70.90
4755;DHT22;2391;47.212;7.542;2023-02-26T05:17:29;2.50;70.90
4755;DHT22;2391;47.212;7.542;2023-02-26T05:19:54;2.50;70.70
4755;DHT22;2391;47.212;7.542;2023-02-26T05:22:20;2.50;70.10
4755;DHT22;2391;47.212;7.542;2023-02-26T05:24:46;2.40;70.00
4755;DHT22;2391;47.212;7.542;2023-02-26T05:27:11;2.30;70.40
4755;DHT22;2391;47.212;7.542;2023-02-26T05:29:37;2.20;70.60
4755;DHT22;2391;47.212;7.542;2023-02-26T05:32:05;2.30;70.60
4755;DHT22;2391;47.212;7.542;2023-02-26T05:34:31;2.30;70.80
4755;DHT22;2391;47.212;7.542;2023-02-26T05:36:56;2.30;70.60
4755;DHT22;2391;47.212;7.542;2023-02-26T05:39:22;2.40;70.20
4755;DHT22;2391;47.212;7.542;2023-02-26T05:41:48;2.30;70.30
4755;DHT22;2391;47.212;7.542;2023-02-26T05:44:13;2.20;70.50
4755;DHT22;2391;47.212;7.542;2023-02-26T05:46:39;2.20;71.10
4755;DHT22;2391;47.212;7.542;2023-02-26T05:49:05;2.10;71.30
4755;DHT22;2391;47.212;7.542;2023-02-26T05:51:30;2.10;70.60
4755;DHT22;2391;47.212;7.542;2023-02-26T05:53:56;2.10;71.20
4755;DHT22;2391;47.212;7.542;2023-02-26T05:56:22;2.00;71.70
4755;DHT22;2391;47.212;7.542;2023-02-26T05:58:48;2.10;71.60
4755;DHT22;2391;47.212;7.542;2023-02-26T06:01:13;2.10;72.20
4755;DHT22;2391;47.212;7.542;2023-02-26T06:03:39;2.10;72.30
4755;DHT22;2391;47.212;7.542;2023-02-26T06:06:07;2.10;71.90
4755;DHT22;2391;47.212;7.542;2023-02-26T06:08:32;2.10;71.30
4755;DHT22;2391;47.212;7.542;2023-02-26T06:10:58;2.00;71.90
4755;DHT22;2391;47.212;7.542;2023-02-26T06:13:24;1.90;72.20
4755;DHT22;2391;47.212;7.542;2023-02-26T06:15:50;1.90;72.50
4755;DHT22;2391;47.212;7.542;2023-02-26T06:18:16;1.80;72.90
4755;DHT22;2391;47.212;7.542;2023-02-26T06:20:42;1.90;72.90
4755;DHT22;2391;47.212;7.542;2023-02-26T06:23:08;1.90;72.40
4755;DHT22;2391;47.212;7.542;2023-02-26T06:25:34;1.90;72.90
4755;DHT22;2391;47.212;7.542;2023-02-26T06:27:59;1.90;73.00
4755;DHT22;2391;47.212;7.542;2023-02-26T06:30:25;1.90;72.40
4755;DHT22;2391;47.212;7.542;2023-02-26T06:32:51;1.90;72.00
4755;DHT22;2391;47.212;7.542;2023-02-26T06:35:17;1.80;72.40
4755;DHT22;2391;47.212;7.542;2023-02-26T06:37:42;1.70;72.70
4755;DHT22;2391;47.212;7.542;2023-02-26T06:40:09;1.60;72.60
4755;DHT22;2391;47.212;7.542;2023-02-26T06:42:38;1.60;73.00
4755;DHT22;2391;47.212;7.542;2023-02-26T06:45:04;1.60;73.20
4755;DHT22;2391;47.212;7.542;2023-02-26T06:47:30;1.50;73.20
4755;DHT22;2391;47.212;7.542;2023-02-26T06:49:56;1.50;73.30
4755;DHT22;2391;47.212;7.542;2023-02-26T06:52:22;1.60;73.30
4755;DHT22;2391;47.212;7.542;2023-02-26T06:54:47;1.60;73.30
4755;DHT22;2391;47.212;7.542;2023-02-26T06:57:13;1.60;73.20
4755;DHT22;2391;47.212;7.542;2023-02-26T06:59:39;1.70;72.70
4755;DHT22;2391;47.212;7.542;2023-02-26T07:02:05;1.70;73.40
4755;DHT22;2391;47.212;7.542;2023-02-26T07:04:31;1.80;73.00
4755;DHT22;2391;47.212;7.542;2023-02-26T07:06:56;1.90;72.50
4755;DHT22;2391;47.212;7.542;2023-02-26T07:09:22;1.90;71.60
4755;DHT22;2391;47.212;7.542;2023-02-26T07:11:48;1.90;71.30
4755;DHT22;2391;47.212;7.542;2023-02-26T07:14:13;1.90;70.80
4755;DHT22;2391;47.212;7.542;2023-02-26T07:16:39;1.80;71.00
4755;DHT22;2391;47.212;7.542;2023-02-26T07:19:05;1.70;71.30
4755;DHT22;2391;47.212;7.542;2023-02-26T07:21:31;1.70;71.20
4755;DHT22;2391;47.212;7.542;2023-02-26T07:23:56;1.70;70.80
4755;DHT22;2391;47.212;7.542;2023-02-26T07:26:22;1.70;71.20
4755;DHT22;2391;47.212;7.542;2023-02-26T07:28:48;1.60;71.50
4755;DHT22;2391;47.212;7.542;2023-02-26T07:31:13;1.60;71.50
4755;DHT22;2391;47.212;7.542;2023-02-26T07:33:41;1.70;71.10
4755;DHT22;2391;47.212;7.542;2023-02-26T07:36:06;1.60;71.50
4755;DHT22;2391;47.212;7.542;2023-02-26T07:38:32;1.60;71.70
4755;DHT22;2391;47.212;7.542;2023-02-26T07:40:58;1.60;71.70
4755;DHT22;2391;47.212;7.542;2023-02-26T07:43:24;1.50;72.20
4755;DHT22;2391;47.212;7.542;2023-02-26T07:45:50;1.50;72.20
4755;DHT22;2391;47.212;7.542;2023-02-26T07:48:17;1.40;72.30
4755;DHT22;2391;47.212;7.542;2023-02-26T07:50:43;1.40;72.30
4755;DHT22;2391;47.212;7.542;2023-02-26T07:53:09;1.50;72.80
4755;DHT22;2391;47.212;7.542;2023-02-26T07:55:35;1.50;73.00
4755;DHT22;2391;47.212;7.542;2023-02-26T07:58:00;1.60;73.30
4755;DHT22;2391;47.212;7.542;2023-02-26T08:00:26;1.70;72.80
4755;DHT22;2391;47.212;7.542;2023-02-26T08:02:52;1.70;72.60
4755;DHT22;2391;47.212;7.542;2023-02-26T08:05:18;1.80;73.30
4755;DHT22;2391;47.212;7.542;2023-02-26T08:07:43;1.90;72.40
4755;DHT22;2391;47.212;7.542;2023-02-26T08:10:10;1.80;72.80
4755;DHT22;2391;47.212;7.542;2023-02-26T08:12:36;1.90;73.10
4755;DHT22;2391;47.212;7.542;2023-02-26T08:15:02;2.00;72.30
4755;DHT22;2391;47.212;7.542;2023-02-26T08:17:28;2.10;72.00
4755;DHT22;2391;47.212;7.542;2023-02-26T08:19:54;2.10;71.60
4755;DHT22;2391;47.212;7.542;2023-02-26T08:22:20;2.10;72.00
4755;DHT22;2391;47.212;7.542;2023-02-26T08:24:48;2.20;71.90
4755;DHT22;2391;47.212;7.542;2023-02-26T08:27:15;2.30;72.00
4755;DHT22;2391;47.212;7.542;2023-02-26T08:29:41;2.30;70.60
4755;DHT22;2391;47.212;7.542;2023-02-26T08:32:08;2.40;70.70
4755;DHT22;2391;47.212;7.542;2023-02-26T08:34:33;2.40;70.80
4755;DHT22;2391;47.212;7.542;2023-02-26T08:36:59;2.40;70.70
4755;DHT22;2391;47.212;7.542;2023-02-26T08:39:25;2.40;70.60
4755;DHT22;2391;47.212;7.542;2023-02-26T08:41:50;2.50;70.50
4755;DHT22;2391;47.212;7.542;2023-02-26T08:44:16;2.50;70.00
4755;DHT22;2391;47.212;7.542;2023-02-26T08:46:42;2.60;70.10
4755;DHT22;2391;47.212;7.542;2023-02-26T08:49:08;2.60;69.90
4755;DHT22;2391;47.212;7.542;2023-02-26T08:51:33;2.50;69.80
4755;DHT22;2391;47.212;7.542;2023-02-26T08:53:59;2.50;70.70
4755;DHT22;2391;47.212;7.542;2023-02-26T08:56:25;2.50;70.70
4755;DHT22;2391;47.212;7.542;2023-02-26T08:58:51;2.50;69.80
4755;DHT22;2391;47.212;7.542;2023-02-26T09:01:17;2.40;68.80
4755;DHT22;2391;47.212;7.542;2023-02-26T09:03:42;2.20;70.10
4755;DHT22;2391;47.212;7.542;2023-02-26T09:06:08;2.10;69.50
4755;DHT22;2391;47.212;7.542;2023-02-26T09:08:34;2.00;69.10
4755;DHT22;2391;47.212;7.542;2023-02-26T09:11:01;1.80;69.20
4755;DHT22;2391;47.212;7.542;2023-02-26T09:13:27;1.70;69.70
4755;DHT22;2391;47.212;7.542;2023-02-26T09:15:53;1.60;69.80
4755;DHT22;2391;47.212;7.542;2023-02-26T09:18:19;1.50;70.10
4755;DHT22;2391;47.212;7.542;2023-02-26T09:20:45;1.50;70.40
4755;DHT22;2391;47.212;7.542;2023-02-26T09:23:13;1.60;72.00
4755;DHT22;2391;47.212;7.542;2023-02-26T09:25:39;1.60;73.20
4755;DHT22;2391;47.212;7.542;2023-02-26T09:28:05;1.80;73.20
4755;DHT22;2391;47.212;7.542;2023-02-26T09:30:31;1.90;73.30
4755;DHT22;2391;47.212;7.542;2023-02-26T09:32:57;2.00;73.30
4755;DHT22;2391;47.212;7.542;2023-02-26T09:35:22;2.10;73.20
4755;DHT22;2391;47.212;7.542;2023-02-26T09:37:48;2.30;72.90
4755;DHT22;2391;47.212;7.542;2023-02-26T09:41:14;2.50;70.90
4755;DHT22;2391;47.212;7.542;2023-02-26T09:45:35;2.40;70.40
4755;DHT22;2391;47.212;7.542;2023-02-26T09:48:04;2.40;69.40
4755;DHT22;2391;47.212;7.542;2023-02-26T09:50:43;2.50;69.60
4755;DHT22;2391;47.212;7.542;2023-02-26T09:53:27;2.50;67.70
4755;DHT22;2391;47.212;7.542;2023-02-26T09:55:59;2.60;67.50
4755;DHT22;2391;47.212;7.542;2023-02-26T09:58:31;2.70;66.60
4755;DHT22;2391;47.212;7.542;2023-02-26T10:06:29;2.50;64.30
4755;DHT22;2391;47.212;7.542;2023-02-26T10:12:01;2.40;64.00
4755;DHT22;2391;47.212;7.542;2023-02-26T10:14:40;2.30;64.10
4755;DHT22;2391;47.212;7.542;2023-02-26T10:17:21;2.30;65.60
4755;DHT22;2391;47.212;7.542;2023-02-26T10:19:51;2.30;66.30
4755;DHT22;2391;47.212;7.542;2023-02-26T10:22:30;2.30;67.00
4755;DHT22;2391;47.212;7.542;2023-02-26T10:28:08;2.10;67.60
4755;DHT22;2391;47.212;7.542;2023-02-26T10:30:51;2.10;68.00
4755;DHT22;2391;47.212;7.542;2023-02-26T10:36:12;2.10;66.20
4755;DHT22;2391;47.212;7.542;2023-02-26T10:38:34;1.90;66.80
4755;DHT22;2391;47.212;7.542;2023-02-26T10:41:09;1.90;66.60
4755;DHT22;2391;47.212;7.542;2023-02-26T10:43:41;1.90;67.40
4755;DHT22;2391;47.212;7.542;2023-02-26T10:49:28;1.80;67.00
4755;DHT22;2391;47.212;7.542;2023-02-26T10:51:53;1.80;66.50
4755;DHT22;2391;47.212;7.542;2023-02-26T10:56:54;1.70;65.90
4755;DHT22;2391;47.212;7.542;2023-02-26T10:59:20;1.80;66.40
4755;DHT22;2391;47.212;7.542;2023-02-26T11:01:46;1.80;67.50
4755;DHT22;2391;47.212;7.542;2023-02-26T11:04:16;1.80;67.10
4755;DHT22;2391;47.212;7.542;2023-02-26T11:09:25;1.70;64.70
4755;DHT22;2391;47.212;7.542;2023-02-26T11:12:14;1.70;64.40
4755;DHT22;2391;47.212;7.542;2023-02-26T11:14:24;1.80;64.60
4755;DHT22;2391;47.212;7.542;2023-02-26T11:16:55;1.80;64.00
4755;DHT22;2391;47.212;7.542;2023-02-26T11:19:27;1.80;64.60
4755;DHT22;2391;47.212;7.542;2023-02-26T11:21:52;1.80;65.80
4755;DHT22;2391;47.212;7.542;2023-02-26T11:24:36;1.90;67.20
4755;DHT22;2391;47.212;7.542;2023-02-26T11:27:08;2.10;67.10
4755;DHT22;2391;47.212;7.542;2023-02-26T11:29:45;2.30;65.30
4755;DHT22;2391;47.212;7.542;2023-02-26T11:32:18;2.40;65.10
4755;DHT22;2391;47.212;7.542;2023-02-26T11:34:47;2.40;65.00
4755;DHT22;2391;47.212;7.542;2023-02-26T11:38:16;2.40;65.40
4755;DHT22;2391;47.212;7.542;2023-02-26T11:39:57;2.40;65.10
4755;DHT22;2391;47.212;7.542;2023-02-26T11:42:24;2.40;65.60
4755;DHT22;2391;47.212;7.542;2023-02-26T11:44:51;2.40;65.10
4755;DHT22;2391;47.212;7.542;2023-02-26T11:47:27;2.30;65.40
4755;DHT22;2391;47.212;7.542;2023-02-26T11:49:53;2.30;66.40
4755;DHT22;2391;47.212;7.542;2023-02-26T11:52:40;2.30;64.60
4755;DHT22;2391;47.212;7.542;2023-02-26T11:55:21;2.40;63.30
4755;DHT22;2391;47.212;7.542;2023-02-26T11:57:52;2.40;63.60
4755;DHT22;2391;47.212;7.542;2023-02-26T12:00:24;2.50;64.60
4755;DHT22;2391;47.212;7.542;2023-02-26T12:02:59;2.50;64.40
4755;DHT22;2391;47.212;7.542;2023-02-26T12:05:21;2.50;64.50
4755;DHT22;2391;47.212;7.542;2023-02-26T12:07:47;2.40;64.00
4755;DHT22;2391;47.212;7.542;2023-02-26T12:10:16;2.40;65.00
4755;DHT22;2391;47.212;7.542;2023-02-26T12:14:03;2.50;63.90
4755;DHT22;2391;47.212;7.542;2023-02-26T12:18:31;2.50;65.80
4755;DHT22;2391;47.212;7.542;2023-02-26T12:21:17;2.50;66.80
4755;DHT22;2391;47.212;7.542;2023-02-26T12:26:34;2.70;62.80
4755;DHT22;2391;47.212;7.542;2023-02-26T12:29:28;2.60;63.20
4755;DHT22;2391;47.212;7.542;2023-02-26T12:34:51;2.70;63.50
4755;DHT22;2391;47.212;7.542;2023-02-26T12:43:22;2.60;64.00
4755;DHT22;2391;47.212;7.542;2023-02-26T12:46:06;2.50;65.70
4755;DHT22;2391;47.212;7.542;2023-02-26T12:52:28;2.60;63.30
4755;DHT22;2391;47.212;7.542;2023-02-26T12:54:23;2.60;63.40
4755;DHT22;2391;47.212;7.542;2023-02-26T12:59:55;2.50;65.70
4755;DHT22;2391;47.212;7.542;2023-02-26T13:08:17;2.30;67.50
4755;DHT22;2391;47.212;7.542;2023-02-26T13:21:43;2.50;66.40
4755;DHT22;2391;47.212;7.542;2023-02-26T13:24:17;2.50;67.30
4755;DHT22;2391;47.212;7.542;2023-02-26T13:26:43;2.40;67.60
4755;DHT22;2391;47.212;7.542;2023-02-26T13:37:17;2.10;67.60
4755;DHT22;2391;47.212;7.542;2023-02-26T13:39:46;2.00;67.20
4755;DHT22;2391;47.212;7.542;2023-02-26T13:42:32;1.90;67.30
4755;DHT22;2391;47.212;7.542;2023-02-26T13:53:04;2.10;66.90
4755;DHT22;2391;47.212;7.542;2023-02-26T13:55:43;2.10;67.10
4755;DHT22;2391;47.212;7.542;2023-02-26T14:00:48;2.20;67.10
4755;DHT22;2391;47.212;7.542;2023-02-26T14:08:24;2.40;65.30
4755;DHT22;2391;47.212;7.542;2023-02-26T14:11:36;2.50;64.90
4755;DHT22;2391;47.212;7.542;2023-02-26T14:13:23;2.50;64.50
4755;DHT22;2391;47.212;7.542;2023-02-26T14:16:09;2.60;65.10
4755;DHT22;2391;47.212;7.542;2023-02-26T14:18:50;2.50;65.80
4755;DHT22;2391;47.212;7.542;2023-02-26T14:24:04;2.50;68.20
4755;DHT22;2391;47.212;7.542;2023-02-26T14:26:32;2.50;69.30
4755;DHT22;2391;47.212;7.542;2023-02-26T14:29:11;2.50;69.90
4755;DHT22;2391;47.212;7.542;2023-02-26T14:31:49;2.50;69.00
4755;DHT22;2391;47.212;7.542;2023-02-26T14:34:19;2.50;67.70
4755;DHT22;2391;47.212;7.542;2023-02-26T14:36:52;2.50;67.90
4755;DHT22;2391;47.212;7.542;2023-02-26T14:42:05;2.70;68.30
4755;DHT22;2391;47.212;7.542;2023-02-26T14:44:43;2.70;67.70
4755;DHT22;2391;47.212;7.542;2023-02-26T14:47:11;2.60;68.30
4755;DHT22;2391;47.212;7.542;2023-02-26T14:49:40;2.40;71.00
4755;DHT22;2391;47.212;7.542;2023-02-26T15:03:02;2.50;74.20
4755;DHT22;2391;47.212;7.542;2023-02-26T15:05:43;2.60;75.90
4755;DHT22;2391;47.212;7.542;2023-02-26T15:16:40;2.50;74.70
4755;DHT22;2391;47.212;7.542;2023-02-26T15:24:17;2.50;75.50
4755;DHT22;2391;47.212;7.542;2023-02-26T15:26:56;2.40;76.60
4755;DHT22;2391;47.212;7.542;2023-02-26T15:29:27;2.20;78.60
4755;DHT22;2391;47.212;7.542;2023-02-26T15:31:56;2.10;80.70
4755;DHT22;2391;47.212;7.542;2023-02-26T15:34:22;1.90;82.40
4755;DHT22;2391;47.212;7.542;2023-02-26T15:36:49;1.80;83.10
4755;DHT22;2391;47.212;7.542;2023-02-26T15:39:17;1.70;83.50
4755;DHT22;2391;47.212;7.542;2023-02-26T15:41:46;1.60;83.90
4755;DHT22;2391;47.212;7.542;2023-02-26T15:44:21;1.50;82.50
4755;DHT22;2391;47.212;7.542;2023-02-26T15:46:52;1.50;82.30
4755;DHT22;2391;47.212;7.542;2023-02-26T15:49:29;1.60;83.20
4755;DHT22;2391;47.212;7.542;2023-02-26T15:51:57;1.70;82.60
4755;DHT22;2391;47.212;7.542;2023-02-26T15:54:28;1.70;81.00
4755;DHT22;2391;47.212;7.542;2023-02-26T15:56:53;1.60;79.90
4755;DHT22;2391;47.212;7.542;2023-02-26T15:59:28;1.70;80.70
4755;DHT22;2391;47.212;7.542;2023-02-26T16:01:55;1.80;80.90
4755;DHT22;2391;47.212;7.542;2023-02-26T16:04:21;1.90;81.30
4755;DHT22;2391;47.212;7.542;2023-02-26T16:06:51;1.90;80.20
4755;DHT22;2391;47.212;7.542;2023-02-26T16:09:28;1.90;80.00
4755;DHT22;2391;47.212;7.542;2023-02-26T16:11:47;2.00;78.70
4755;DHT22;2391;47.212;7.542;2023-02-26T16:14:23;2.00;77.80
4755;DHT22;2391;47.212;7.542;2023-02-26T16:16:51;2.00;76.90
4755;DHT22;2391;47.212;7.542;2023-02-26T16:19:34;2.00;75.50
4755;DHT22;2391;47.212;7.542;2023-02-26T16:22:03;2.00;73.50
4755;DHT22;2391;47.212;7.542;2023-02-26T16:24:29;1.90;74.00
4755;DHT22;2391;47.212;7.542;2023-02-26T16:26:59;1.90;74.30
4755;DHT22;2391;47.212;7.542;2023-02-26T16:29:28;1.90;74.20
4755;DHT22;2391;47.212;7.542;2023-02-26T16:31:57;2.00;74.80
4755;DHT22;2391;47.212;7.542;2023-02-26T16:39:45;2.00;74.10
4755;DHT22;2391;47.212;7.542;2023-02-26T16:42:19;2.00;74.40
4755;DHT22;2391;47.212;7.542;2023-02-26T16:44:49;2.00;73.50
4755;DHT22;2391;47.212;7.542;2023-02-26T16:47:16;2.10;72.90
4755;DHT22;2391;47.212;7.542;2023-02-26T16:49:43;2.10;72.80
4755;DHT22;2391;47.212;7.542;2023-02-26T16:52:13;2.10;73.00
4755;DHT22;2391;47.212;7.542;2023-02-26T16:54:40;2.20;73.30
4755;DHT22;2391;47.212;7.542;2023-02-26T16:57:23;2.20;73.30
4755;DHT22;2391;47.212;7.542;2023-02-26T16:59:51;2.20;73.50
4755;DHT22;2391;47.212;7.542;2023-02-26T17:02:24;2.10;74.20
4755;DHT22;2391;47.212;7.542;2023-02-26T17:04:53;2.10;74.80
4755;DHT22;2391;47.212;7.542;2023-02-26T17:07:32;2.10;75.10
4755;DHT22;2391;47.212;7.542;2023-02-26T17:10:05;2.00;75.50
4755;DHT22;2391;47.212;7.542;2023-02-26T17:12:42;2.00;76.10
4755;DHT22;2391;47.212;7.542;2023-02-26T17:17:46;1.90;77.00
4755;DHT22;2391;47.212;7.542;2023-02-26T17:20:13;1.90;77.70
4755;DHT22;2391;47.212;7.542;2023-02-26T17:22:41;1.90;76.70
4755;DHT22;2391;47.212;7.542;2023-02-26T17:25:13;2.00;76.70
4755;DHT22;2391;47.212;7.542;2023-02-26T17:27:39;2.00;76.40
4755;DHT22;2391;47.212;7.542;2023-02-26T17:30:06;1.90;76.00
4755;DHT22;2391;47.212;7.542;2023-02-26T17:32:33;1.90;75.90
4755;DHT22;2391;47.212;7.542;2023-02-26T17:35:00;1.90;75.60
4755;DHT22;2391;47.212;7.542;2023-02-26T17:37:32;1.80;75.80
4755;DHT22;2391;47.212;7.542;2023-02-26T17:39:58;1.70;76.80
4755;DHT22;2391;47.212;7.542;2023-02-26T17:42:24;1.60;76.90
4755;DHT22;2391;47.212;7.542;2023-02-26T17:44:50;1.60;77.40
4755;DHT22;2391;47.212;7.542;2023-02-26T17:47:22;1.60;78.00
4755;DHT22;2391;47.212;7.542;2023-02-26T17:49:48;1.60;78.00
4755;DHT22;2391;47.212;7.542;2023-02-26T17:52:14;1.60;78.30
4755;DHT22;2391;47.212;7.542;2023-02-26T17:54:40;1.60;78.20
4755;DHT22;2391;47.212;7.542;2023-02-26T17:57:06;1.60;77.60
4755;DHT22;2391;47.212;7.542;2023-02-26T17:59:34;1.60;77.60
4755;DHT22;2391;47.212;7.542;2023-02-26T18:01:59;1.60;77.70
4755;DHT22;2391;47.212;7.542;2023-02-26T18:04:25;1.60;77.80
4755;DHT22;2391;47.212;7.542;2023-02-26T18:06:51;1.60;78.10
4755;DHT22;2391;47.212;7.542;2023-02-26T18:09:18;1.60;77.90
4755;DHT22;2391;47.212;7.542;2023-02-26T18:11:44;1.60;77.90
4755;DHT22;2391;47.212;7.542;2023-02-26T18:14:10;1.60;77.70
4755;DHT22;2391;47.212;7.542;2023-02-26T18:16:38;1.60;77.60
4755;DHT22;2391;47.212;7.542;2023-02-26T18:19:06;1.60;77.50
4755;DHT22;2391;47.212;7.542;2023-02-26T18:21:32;1.60;77.70
4755;DHT22;2391;47.212;7.542;2023-02-26T18:23:58;1.60;77.40
4755;DHT22;2391;47.212;7.542;2023-02-26T18:26:29;1.60;77.60
4755;DHT22;2391;47.212;7.542;2023-02-26T18:28:55;1.60;77.40
4755;DHT22;2391;47.212;7.542;2023-02-26T18:31:22;1.60;77.60
4755;DHT22;2391;47.212;7.542;2023-02-26T18:33:49;1.60;77.80
4755;DHT22;2391;47.212;7.542;2023-02-26T18:36:22;1.60;77.50
4755;DHT22;2391;47.212;7.542;2023-02-26T18:38:49;1.60;76.90
4755;DHT22;2391;47.212;7.542;2023-02-26T18:41:15;1.60;77.10
4755;DHT22;2391;47.212;7.542;2023-02-26T18:43:40;1.60;76.30
4755;DHT22;2391;47.212;7.542;2023-02-26T18:46:07;1.60;76.20
4755;DHT22;2391;47.212;7.542;2023-02-26T18:48:34;1.60;76.50
4755;DHT22;2391;47.212;7.542;2023-02-26T18:50:59;1.50;76.30
4755;DHT22;2391;47.212;7.542;2023-02-26T18:53:25;1.50;76.50
4755;DHT22;2391;47.212;7.542;2023-02-26T18:55:53;1.50;77.00
4755;DHT22;2391;47.212;7.542;2023-02-26T18:58:21;1.60;77.20
4755;DHT22;2391;47.212;7.542;2023-02-26T19:00:47;1.60;77.10
4755;DHT22;2391;47.212;7.542;2023-02-26T19:03:13;1.60;77.20
4755;DHT22;2391;47.212;7.542;2023-02-26T19:05:39;1.60;77.30
4755;DHT22;2391;47.212;7.542;2023-02-26T19:08:05;1.60;77.70
4755;DHT22;2391;47.212;7.542;2023-02-26T19:10:31;1.50;77.80
4755;DHT22;2391;47.212;7.542;2023-02-26T19:12:59;1.50;77.20
4755;DHT22;2391;47.212;7.542;2023-02-26T19:15:25;1.50;77.40
4755;DHT22;2391;47.212;7.542;2023-02-26T19:17:51;1.50;77.40
4755;DHT22;2391;47.212;7.542;2023-02-26T19:20:18;1.50;77.60
4755;DHT22;2391;47.212;7.542;2023-02-26T19:22:44;1.50;78.10
4755;DHT22;2391;47.212;7.542;2023-02-26T19:25:11;1.50;78.10
4755;DHT22;2391;47.212;7.542;2023-02-26T19:27:38;1.50;78.20
4755;DHT22;2391;47.212;7.542;2023-02-26T19:30:05;1.50;77.80
4755;DHT22;2391;47.212;7.542;2023-02-26T19:32:32;1.40;77.50
4755;DHT22;2391;47.212;7.542;2023-02-26T19:34:58;1.30;77.20
4755;DHT22;2391;47.212;7.542;2023-02-26T19:37:24;1.30;77.70